createdAt,value
2023-09-25T00:02:37.160Z,1.00
2023-09-25T00:05:24.709Z,1.38
2023-09-25T00:08:12.177Z,1.10
2023-09-25T00:10:59.759Z,1.10
2023-09-25T00:13:47.509Z,1.10
2023-09-25T00:16:35.053Z,1.20
2023-09-25T00:19:22.746Z,1.13
2023-09-25T00:22:10.349Z,1.00
2023-09-25T00:24:58.632Z,1.00
2023-09-25T00:27:46.480Z,1.23
2023-09-25T00:30:35.543Z,1.52
2023-09-25T00:33:23.164Z,1.17
2023-09-25T00:36:10.924Z,1.15
2023-09-25T00:38:58.429Z,1.80
2023-09-25T00:41:46.232Z,1.20
2023-09-25T00:44:33.863Z,1.27
2023-09-25T00:47:21.808Z,1.10
2023-09-25T00:50:10.967Z,1.20
2023-09-25T00:53:04.420Z,1.08
2023-09-25T00:55:52.884Z,1.40
2023-09-25T00:58:40.453Z,1.50
2023-09-25T01:01:28.963Z,1.20
2023-09-25T01:04:16.532Z,1.17
2023-09-25T01:07:05.200Z,1.10
2023-09-25T01:10:13.858Z,1.13
2023-09-25T01:13:02.666Z,1.10
2023-09-25T01:15:50.361Z,1.30
2023-09-25T01:18:38.007Z,1.02
2023-09-25T01:21:27.406Z,1.13
2023-09-25T01:24:15.012Z,1.92
2023-09-25T01:27:02.709Z,1.00
2023-09-25T01:29:50.442Z,1.05
2023-09-25T01:32:42.023Z,1.05
2023-09-25T01:35:29.701Z,1.00
2023-09-25T01:38:17.204Z,1.08
2023-09-25T01:41:05.523Z,1.05
2023-09-25T01:43:53.020Z,1.00
2023-09-25T01:46:43.150Z,1.08
2023-09-25T01:49:32.352Z,1.20
2023-09-25T01:52:19.948Z,1.25
2023-09-25T01:55:07.887Z,1.33
2023-09-25T01:57:56.180Z,1.23
2023-09-25T02:00:44.109Z,1.10
2023-09-25T02:03:32.145Z,0.90
2023-09-25T02:06:19.994Z,1.00
2023-09-25T02:09:07.626Z,1.30
2023-09-25T02:11:55.134Z,1.33
2023-09-25T02:14:42.716Z,1.05
2023-09-25T02:17:30.826Z,1.00
2023-09-25T02:20:19.554Z,1.30
2023-09-25T02:23:07.806Z,1.10
2023-09-25T02:25:55.362Z,1.20
2023-09-25T02:28:42.885Z,1.20
2023-09-25T02:31:30.642Z,1.20
2023-09-25T02:34:18.205Z,0.98
2023-09-25T02:37:05.750Z,0.90
2023-09-25T02:39:53.341Z,1.20
2023-09-25T02:42:41.955Z,1.00
2023-09-25T02:45:29.807Z,1.00
2023-09-25T02:48:17.529Z,1.30
2023-09-25T02:51:05.153Z,0.88
2023-09-25T02:53:56.030Z,1.08
2023-09-25T02:56:43.583Z,1.08
2023-09-25T02:59:31.650Z,1.13
2023-09-25T03:02:20.217Z,1.00
2023-09-25T03:05:08.617Z,1.10
2023-09-25T03:07:56.136Z,0.93
2023-09-25T03:10:43.690Z,0.90
2023-09-25T03:13:31.243Z,1.08
2023-09-25T03:16:19.211Z,0.95
2023-09-25T03:19:07.428Z,1.00
2023-09-25T03:21:54.936Z,1.10
2023-09-25T03:24:42.580Z,1.00
2023-09-25T03:27:30.149Z,1.02
2023-09-25T03:30:18.100Z,1.13
2023-09-25T03:33:05.925Z,1.10
2023-09-25T03:35:53.550Z,1.00
2023-09-25T03:38:41.227Z,1.30
2023-09-25T03:41:28.763Z,0.98
2023-09-25T03:44:16.250Z,1.00
2023-09-25T03:47:04.079Z,0.95
2023-09-25T03:49:51.972Z,1.10
2023-09-25T03:52:39.606Z,0.80
2023-09-25T03:55:27.408Z,1.17
2023-09-25T03:58:15.398Z,1.20
2023-09-25T04:01:03.143Z,1.00
2023-09-25T04:03:51.392Z,1.10
2023-09-25T04:06:39.000Z,1.02
2023-09-25T04:09:26.561Z,1.10
2023-09-25T04:12:16.143Z,1.08
2023-09-25T04:15:06.467Z,1.13
2023-09-25T04:17:54.448Z,1.05
2023-09-25T04:20:44.652Z,1.30
2023-09-25T04:23:32.635Z,0.90
2023-09-25T04:26:20.216Z,1.10
2023-09-25T04:29:10.654Z,1.00
2023-09-25T04:31:58.274Z,0.90
2023-09-25T04:34:46.047Z,1.00
2023-09-25T04:37:33.592Z,1.10
2023-09-25T04:40:24.517Z,1.00
2023-09-25T04:43:12.308Z,0.88
2023-09-25T04:46:00.013Z,1.10
2023-09-25T04:48:48.942Z,1.02
2023-09-25T04:51:36.872Z,1.00
2023-09-25T04:54:24.704Z,1.02
2023-09-25T04:57:12.363Z,1.00
2023-09-25T04:59:59.860Z,0.93
2023-09-25T05:02:49.468Z,0.98
2023-09-25T05:05:37.057Z,0.95
2023-09-25T05:08:24.699Z,1.10
2023-09-25T05:11:12.654Z,1.08
2023-09-25T05:14:00.229Z,1.17
2023-09-25T05:16:47.815Z,1.00
2023-09-25T05:19:35.525Z,1.17
2023-09-25T05:22:23.066Z,1.08
2023-09-25T05:25:12.444Z,1.10
2023-09-25T05:28:00.210Z,0.98
2023-09-25T05:30:49.225Z,1.00
2023-09-25T05:33:36.840Z,1.00
2023-09-25T05:36:24.476Z,1.10
2023-09-25T05:39:12.463Z,1.17
2023-09-25T05:42:00.224Z,1.20
2023-09-25T05:44:47.825Z,1.02
2023-09-25T05:47:36.018Z,1.42
2023-09-25T05:50:23.683Z,1.20
2023-09-25T05:53:11.236Z,1.23
2023-09-25T05:55:59.986Z,1.00
2023-09-25T05:58:48.140Z,1.10
2023-09-25T06:01:35.925Z,1.20
2023-09-25T06:04:23.719Z,1.02
2023-09-25T06:07:11.413Z,1.33
2023-09-25T06:09:59.238Z,1.10
2023-09-25T06:12:47.604Z,1.00
2023-09-25T06:15:35.354Z,1.10
2023-09-25T06:18:22.954Z,1.10
2023-09-25T06:21:14.639Z,1.00
2023-09-25T06:24:03.150Z,1.30
2023-09-25T06:26:51.221Z,1.17
2023-09-25T06:29:38.744Z,1.20
2023-09-25T06:32:26.863Z,1.20
2023-09-25T06:35:15.509Z,1.52
2023-09-25T06:38:03.032Z,1.42
2023-09-25T06:40:50.611Z,1.30
2023-09-25T06:43:39.062Z,1.60
2023-09-25T06:46:27.234Z,1.30
2023-09-25T06:49:14.857Z,1.38
2023-09-25T06:52:02.669Z,1.20
2023-09-25T06:54:50.589Z,1.27
2023-09-25T06:57:38.218Z,1.35
2023-09-25T07:00:25.845Z,1.17
2023-09-25T07:03:15.395Z,1.23
2023-09-25T07:06:04.113Z,0.98
2023-09-25T07:08:51.822Z,1.23
2023-09-25T07:11:39.639Z,1.45
2023-09-25T07:14:27.278Z,1.15
2023-09-25T07:17:14.756Z,1.00
2023-09-25T07:20:02.338Z,1.02
2023-09-25T07:22:49.914Z,0.90
2023-09-25T07:25:37.424Z,1.13
2023-09-25T07:28:24.987Z,1.00
2023-09-25T07:31:13.083Z,1.10
2023-09-25T07:34:00.819Z,1.20
2023-09-25T07:36:48.364Z,1.10
2023-09-25T07:39:40.523Z,0.90
2023-09-25T07:42:28.326Z,1.17
2023-09-25T07:45:24.105Z,1.10
2023-09-25T07:48:13.497Z,1.20
2023-09-25T07:51:01.154Z,1.30
2023-09-25T07:53:48.703Z,1.23
2023-09-25T07:56:36.614Z,1.10
2023-09-25T07:59:27.278Z,1.10
2023-09-25T08:02:19.727Z,1.20
2023-09-25T08:05:08.604Z,1.10
2023-09-25T08:07:57.192Z,1.17
2023-09-25T08:10:48.724Z,0.95
2023-09-25T08:13:36.274Z,1.00
2023-09-25T08:16:25.190Z,1.10
2023-09-25T08:19:12.848Z,1.38
2023-09-25T08:22:00.677Z,1.00
2023-09-25T08:24:48.914Z,0.90
2023-09-25T08:27:38.542Z,0.90
2023-09-25T08:30:26.378Z,0.80
2023-09-25T08:33:16.882Z,1.00
2023-09-25T08:36:04.998Z,1.10
2023-09-25T08:38:52.853Z,1.20
2023-09-25T08:41:41.635Z,0.70
2023-09-25T08:44:29.430Z,0.52
2023-09-25T08:47:19.808Z,0.40
2023-09-25T08:50:10.331Z,0.77
2023-09-25T08:52:58.062Z,0.90
2023-09-25T08:55:45.756Z,0.60
2023-09-25T08:58:34.676Z,0.70
2023-09-25T09:01:22.594Z,0.50
2023-09-25T09:04:12.156Z,0.45
2023-09-25T09:07:00.133Z,0.50
2023-09-25T09:09:47.863Z,0.52
2023-09-25T09:13:01.690Z,0.47
2023-09-25T09:15:51.486Z,0.45
2023-09-25T09:18:39.348Z,0.40
2023-09-25T09:21:29.125Z,0.50
2023-09-25T09:24:23.503Z,0.70
2023-09-25T09:27:13.274Z,0.50
2023-09-25T09:30:01.194Z,0.50
2023-09-25T09:32:54.895Z,0.40
2023-09-25T09:35:44.825Z,0.50
2023-09-25T09:38:37.726Z,0.40
2023-09-25T09:41:27.028Z,0.32
2023-09-25T09:44:14.619Z,0.30
2023-09-25T09:47:06.168Z,0.40
2023-09-25T09:49:54.855Z,0.38
2023-09-25T09:52:44.032Z,0.40
2023-09-25T09:55:33.462Z,0.20
2023-09-25T09:58:21.039Z,0.30
2023-09-25T10:01:09.058Z,0.30
2023-09-25T10:03:57.317Z,0.30
2023-09-25T10:06:59.945Z,0.35
2023-09-25T10:10:05.825Z,0.40
2023-09-25T10:12:59.037Z,0.32
2023-09-25T10:15:58.625Z,0.50
2023-09-25T10:18:46.337Z,0.40
2023-09-25T10:21:33.954Z,0.50
2023-09-25T10:24:28.131Z,0.40
2023-09-25T10:30:13.104Z,0.60
2023-09-25T10:33:00.883Z,0.45
2023-09-25T10:35:53.329Z,0.50
2023-09-25T10:38:43.432Z,0.38
2023-09-25T10:41:32.659Z,0.40
2023-09-25T10:44:20.279Z,0.50
2023-09-25T10:47:08.954Z,0.50
2023-09-25T10:49:56.564Z,0.63
2023-09-25T10:52:44.050Z,0.70
2023-09-25T10:55:31.641Z,0.60
2023-09-25T10:58:19.995Z,0.77
2023-09-25T11:01:09.600Z,0.60
2023-09-25T11:04:01.369Z,0.70
2023-09-25T11:06:50.058Z,0.93
2023-09-25T11:09:37.653Z,0.70
2023-09-25T11:12:26.181Z,0.80
2023-09-25T11:15:14.105Z,0.90
2023-09-25T11:18:02.585Z,0.90
2023-09-25T11:20:52.776Z,0.90
2023-09-25T11:23:40.516Z,0.93
2023-09-25T11:26:28.995Z,1.55
2023-09-25T11:29:17.325Z,0.90
2023-09-25T11:32:05.759Z,0.80
2023-09-25T11:34:53.384Z,1.02
2023-09-25T11:38:02.166Z,0.82
2023-09-25T11:40:51.788Z,1.00
2023-09-25T11:43:39.431Z,0.82
2023-09-25T11:46:27.004Z,0.70
2023-09-25T11:49:14.636Z,0.63
2023-09-25T11:52:02.148Z,0.70
2023-09-25T11:54:49.996Z,0.77
2023-09-25T11:57:38.089Z,0.70
2023-09-25T12:00:29.232Z,0.70
2023-09-25T12:03:16.987Z,0.60
2023-09-25T12:06:04.708Z,0.80
2023-09-25T12:08:52.180Z,0.80
2023-09-25T12:11:40.778Z,0.80
2023-09-25T12:14:28.392Z,1.10
2023-09-25T12:17:17.967Z,1.20
2023-09-25T12:20:15.490Z,1.10
2023-09-25T12:23:04.416Z,0.70
2023-09-25T12:25:53.225Z,0.65
2023-09-25T12:28:40.967Z,0.80
2023-09-25T12:31:28.738Z,0.60
2023-09-25T12:34:17.675Z,0.70
2023-09-25T12:37:05.816Z,0.70
2023-09-25T12:39:53.782Z,0.60
2023-09-25T12:42:53.906Z,0.88
2023-09-25T12:45:42.768Z,0.82
2023-09-25T12:48:31.221Z,0.65
2023-09-25T12:51:20.268Z,0.63
2023-09-25T12:54:08.466Z,0.80
2023-09-25T12:56:55.978Z,0.80
2023-09-25T12:59:45.422Z,0.77
2023-09-25T13:02:33.177Z,0.60
2023-09-25T13:05:21.738Z,0.60
2023-09-25T13:08:09.375Z,0.50
2023-09-25T13:10:56.948Z,0.60
2023-09-25T13:13:44.528Z,0.65
2023-09-25T13:16:33.265Z,0.77
2023-09-25T13:19:21.751Z,0.70
2023-09-25T13:22:24.516Z,0.57
2023-09-25T13:25:12.718Z,0.73
2023-09-25T13:28:00.552Z,0.70
2023-09-25T13:30:48.270Z,0.63
2023-09-25T13:33:35.966Z,0.60
2023-09-25T13:36:23.692Z,0.70
2023-09-25T13:39:11.561Z,0.75
2023-09-25T13:41:59.107Z,0.80
2023-09-25T13:44:46.760Z,0.70
2023-09-25T13:47:34.554Z,0.60
2023-09-25T13:50:22.466Z,0.90
2023-09-25T13:53:10.025Z,0.85
2023-09-25T13:55:57.817Z,0.90
2023-09-25T13:58:45.661Z,0.60
2023-09-25T14:01:33.980Z,0.60
2023-09-25T14:04:21.668Z,0.80
2023-09-25T14:07:10.471Z,0.70
2023-09-25T14:09:58.205Z,0.90
2023-09-25T14:12:46.701Z,0.80
2023-09-25T14:15:35.282Z,0.70
2023-09-25T14:18:24.062Z,0.70
2023-09-25T14:21:12.348Z,0.60
2023-09-25T14:24:02.447Z,0.70
2023-09-25T14:26:50.630Z,0.60
2023-09-25T14:29:39.362Z,0.75
2023-09-25T14:32:27.086Z,0.70
2023-09-25T14:35:14.697Z,0.60
2023-09-25T14:38:02.702Z,0.60
2023-09-25T14:40:50.249Z,0.70
2023-09-25T14:43:37.902Z,0.80
2023-09-25T14:46:25.465Z,0.80
2023-09-25T14:49:13.290Z,0.73
2023-09-25T14:52:00.974Z,0.70
2023-09-25T14:54:52.128Z,0.77
2023-09-25T14:57:42.055Z,0.98
2023-09-25T15:00:29.786Z,0.80
2023-09-25T15:03:17.307Z,0.80
2023-09-25T15:06:05.209Z,0.80
2023-09-25T15:08:54.473Z,0.50
2023-09-25T15:11:42.221Z,0.73
2023-09-25T15:14:29.731Z,0.93
2023-09-25T15:17:17.382Z,0.70
2023-09-25T15:20:07.317Z,0.93
2023-09-25T15:22:54.918Z,1.33
2023-09-25T15:25:43.822Z,1.00
2023-09-25T15:28:32.462Z,0.88
2023-09-25T15:31:19.995Z,0.90
2023-09-25T15:34:08.310Z,0.75
2023-09-25T15:36:55.924Z,0.70
2023-09-25T15:39:43.635Z,0.80
2023-09-25T15:42:31.440Z,0.90
2023-09-25T15:45:19.010Z,0.82
2023-09-25T15:48:06.908Z,0.88
2023-09-25T15:50:54.490Z,0.93
2023-09-25T15:53:42.106Z,0.90
2023-09-25T15:56:29.728Z,0.90
2023-09-25T15:59:18.507Z,0.88
2023-09-25T16:02:06.846Z,1.00
2023-09-25T16:04:54.549Z,0.90
2023-09-25T16:07:42.310Z,0.93
2023-09-25T16:10:29.894Z,0.80
2023-09-25T16:13:17.989Z,0.90
2023-09-25T16:16:15.677Z,0.90
2023-09-25T16:19:03.400Z,0.90
2023-09-25T16:21:51.013Z,0.80
2023-09-25T16:24:38.661Z,0.80
2023-09-25T16:27:26.710Z,0.90
2023-09-25T16:30:14.497Z,1.05
2023-09-25T16:33:02.081Z,0.90
2023-09-25T16:35:49.728Z,1.00
2023-09-25T16:38:37.373Z,1.00
2023-09-25T16:41:25.011Z,0.95
2023-09-25T16:44:12.799Z,0.90
2023-09-25T16:47:00.830Z,1.15
2023-09-25T16:49:48.561Z,0.90
2023-09-25T16:52:36.699Z,0.90
2023-09-25T16:55:24.304Z,1.02
2023-09-25T16:58:11.883Z,0.80
2023-09-25T17:00:59.764Z,1.15
2023-09-25T17:03:47.425Z,0.88
2023-09-25T17:06:35.458Z,0.73
2023-09-25T17:09:23.427Z,0.80
2023-09-25T17:12:11.108Z,0.85
2023-09-25T17:14:58.649Z,0.73
2023-09-25T17:17:46.274Z,0.93
2023-09-25T17:20:34.708Z,1.10
2023-09-25T17:23:22.273Z,0.80
2023-09-25T17:26:09.878Z,0.70
2023-09-25T17:28:57.425Z,0.90
2023-09-25T17:31:45.036Z,0.85
2023-09-25T17:34:32.609Z,0.90
2023-09-25T17:37:20.120Z,0.80
2023-09-25T17:40:10.681Z,0.80
2023-09-25T17:42:58.383Z,0.80
2023-09-25T17:45:46.083Z,0.82
2023-09-25T17:48:33.756Z,0.85
2023-09-25T17:51:21.469Z,0.80
2023-09-25T17:54:09.793Z,0.80
2023-09-25T17:56:57.406Z,0.90
2023-09-25T17:59:44.977Z,0.90
2023-09-25T18:02:32.671Z,0.90
2023-09-25T18:05:20.249Z,0.88
2023-09-25T18:08:08.352Z,0.75
2023-09-25T18:10:55.926Z,0.80
2023-09-25T18:13:43.457Z,0.82
2023-09-25T18:16:31.226Z,0.70
2023-09-25T18:19:19.282Z,0.80
2023-09-25T18:22:06.968Z,0.73
2023-09-25T18:24:54.961Z,0.88
2023-09-25T18:27:43.055Z,0.77
2023-09-25T18:30:30.746Z,0.80
2023-09-25T18:33:18.223Z,0.70
2023-09-25T18:36:06.073Z,0.73
2023-09-25T18:38:53.658Z,0.70
2023-09-25T18:41:41.297Z,0.60
2023-09-25T18:44:28.987Z,0.75
2023-09-25T18:47:16.567Z,0.60
2023-09-25T18:50:04.674Z,0.80
2023-09-25T18:52:52.145Z,0.70
2023-09-25T18:55:46.735Z,0.77
2023-09-25T18:58:34.305Z,0.60
2023-09-25T19:01:21.934Z,0.90
2023-09-25T19:04:09.528Z,0.70
2023-09-25T19:06:57.192Z,0.75
2023-09-25T19:09:44.808Z,0.80
2023-09-25T19:12:32.367Z,1.13
2023-09-25T19:15:22.557Z,0.70
2023-09-25T19:18:10.242Z,0.80
2023-09-25T19:20:57.888Z,0.70
2023-09-25T19:23:45.525Z,0.88
2023-09-25T19:26:33.286Z,0.80
2023-09-25T19:29:20.866Z,0.80
2023-09-25T19:32:08.695Z,0.80
2023-09-25T19:34:56.422Z,0.80
2023-09-25T19:37:44.159Z,1.02
2023-09-25T19:40:31.725Z,0.70
2023-09-25T19:43:19.304Z,0.93
2023-09-25T19:46:08.927Z,1.20
2023-09-25T19:48:56.531Z,0.82
2023-09-25T19:51:44.646Z,0.90
2023-09-25T19:54:33.205Z,1.00
2023-09-25T19:57:22.724Z,0.80
2023-09-25T20:00:13.012Z,1.08
2023-09-25T20:03:01.690Z,1.25
2023-09-25T20:05:49.984Z,0.70
2023-09-25T20:08:37.805Z,1.33
2023-09-25T20:11:25.344Z,2.25
2023-09-25T20:14:12.985Z,1.90
2023-09-25T20:17:00.628Z,2.15
2023-09-25T20:19:48.192Z,2.13
2023-09-25T20:22:35.750Z,2.22
2023-09-25T20:25:23.432Z,2.00
2023-09-25T20:28:11.087Z,2.50
2023-09-25T20:30:58.780Z,1.90
2023-09-25T20:33:46.429Z,1.65
2023-09-25T20:36:34.091Z,1.33
2023-09-25T20:39:21.683Z,1.20
2023-09-25T20:42:09.216Z,1.23
2023-09-25T20:44:56.854Z,1.50
2023-09-25T20:47:44.560Z,1.75
2023-09-25T20:50:32.417Z,1.55
2023-09-25T20:53:20.013Z,1.98
2023-09-25T20:56:07.678Z,1.58
2023-09-25T20:58:55.246Z,1.70
2023-09-25T21:01:42.853Z,1.45
2023-09-25T21:04:30.819Z,1.40
2023-09-25T21:07:18.993Z,1.90
2023-09-25T21:10:07.225Z,1.90
2023-09-25T21:12:54.902Z,2.25
2023-09-25T21:15:42.904Z,1.60
2023-09-25T21:18:30.823Z,1.70
2023-09-25T21:21:18.460Z,1.60
2023-09-25T21:24:06.322Z,1.70
2023-09-25T21:26:53.912Z,1.30
2023-09-25T21:29:41.648Z,1.30
2023-09-25T21:32:29.551Z,1.20
2023-09-25T21:35:17.266Z,1.55
2023-09-25T21:38:05.321Z,1.13
2023-09-25T21:40:53.493Z,1.30
2023-09-25T21:43:41.209Z,1.35
2023-09-25T21:46:28.863Z,1.40
2023-09-25T21:49:16.541Z,1.30
2023-09-25T21:52:05.290Z,1.50
2023-09-25T21:54:52.995Z,1.23
2023-09-25T21:57:40.563Z,1.77
2023-09-25T22:00:29.446Z,1.10
2023-09-25T22:03:17.590Z,1.10
2023-09-25T22:06:06.676Z,1.10
2023-09-25T22:08:54.702Z,1.00
2023-09-25T22:11:42.590Z,1.00
2023-09-25T22:14:30.377Z,1.20
2023-09-25T22:17:20.314Z,1.00
2023-09-25T22:20:12.142Z,0.95
2023-09-25T22:22:59.782Z,1.00
2023-09-25T22:25:47.519Z,1.00
2023-09-25T22:28:36.731Z,0.80
2023-09-25T22:31:24.605Z,0.90
2023-09-25T22:34:12.299Z,0.70
2023-09-25T22:37:00.028Z,0.60
2023-09-25T22:39:48.064Z,0.70
2023-09-25T22:42:35.666Z,0.70
2023-09-25T22:45:23.189Z,0.90
2023-09-25T22:48:10.768Z,0.70
2023-09-25T22:50:58.357Z,0.70
2023-09-25T22:53:47.985Z,0.68
2023-09-25T22:56:35.483Z,0.60
2023-09-25T22:59:23.103Z,0.70
2023-09-25T23:02:19.633Z,0.60
2023-09-25T23:05:07.731Z,0.70
2023-09-25T23:07:55.292Z,0.90
2023-09-25T23:10:42.857Z,0.63
2023-09-25T23:13:30.565Z,0.70
2023-09-25T23:16:18.181Z,0.60
2023-09-25T23:19:05.828Z,0.60
2023-09-25T23:21:53.398Z,0.80
2023-09-25T23:24:40.997Z,0.60
2023-09-25T23:27:29.202Z,0.60
2023-09-25T23:30:17.979Z,0.57
2023-09-25T23:33:05.981Z,0.60
2023-09-25T23:35:53.802Z,0.60
2023-09-25T23:38:41.322Z,0.80
2023-09-25T23:41:29.604Z,0.50
2023-09-25T23:44:17.082Z,0.40
2023-09-25T23:47:05.741Z,0.40
2023-09-25T23:49:53.357Z,0.45
2023-09-25T23:52:42.200Z,0.50
2023-09-25T23:55:30.243Z,0.50
2023-09-25T23:58:17.895Z,0.40
